Terminal Aerodrome Forecast
Issued by NWS

Home | Current Version | Previous Version | Graphics & Text | Print | Product List | Glossary On
Versions: 1 2 3 4 5 6 7 8 9 10 11 12 13 14 15 16 17 18 19 20 21 22 23 24 25 26 27 28 29 30 31 32
000
FTUS43 KLOT 190901 AAC
TAFMDW
TAF AMD
KMDW 190901Z 1909/2012 19008KT 6SM BR VCSH SCT008 OVC012
      TEMPO 1911/1913 1SM -DZ BR BKN004 OVC008
     FM191300 15006KT 1 1/2SM -SHRA BR OVC004
      TEMPO 1913/1917 1/2SM -DZ FG OVC002
     FM192000 20014G21KT 1SM -RA BR OVC004 WS020/22050KT
     FM200000 19012G18KT 1 1/2SM -SHRA BR OVC006 WS020/22050KT
     FM200600 21010KT 2SM -SHRA BR OVC007=

USA.gov is the U.S. government's official web portal to all federal, state and local government web resources and services.